Time;durP1;ratioP1;P1;durP2;ratioP2;P2;SDS_P1;SDS_P2;PMS_P1;PMS_P2;Temp;Humidity;BMP_temperature;BMP_pressure;BME280_temperature;BME280_humidity;BME280_pressure;Samples;Min_cycle;Max_cycle;Signal;HPM_P1;HPM_P2
2022/12/20 00:01:48;;;;;;;42.30;19.80;;;;;;;;;;5078156;28;20048;-54
2022/12/20 00:04:14;;;;;;;39.58;19.90;;;;;;;;;;5084468;28;20569;-51
2022/12/20 00:06:40;;;;;;;34.33;18.52;;;;;;;;;;5078638;27;20055;-54
2022/12/20 00:09:07;;;;;;;38.72;18.77;;;;;;;;;;5075718;28;20445;-54
2022/12/20 00:11:34;;;;;;;38.95;19.23;;;;;;;;;;5080169;28;20052;-50
2022/12/20 00:13:59;;;;;;;38.70;18.48;;;;;;;;;;5077911;28;20508;-54
2022/12/20 00:16:27;;;;;;;39.58;18.75;;;;;;;;;;5080112;28;20110;-53
2022/12/20 00:18:58;;;;;;;41.35;19.05;;;;;;;;;;5077001;28;20055;-57
2022/12/20 00:21:24;;;;;;;39.78;18.85;;;;;;;;;;5080463;27;20085;-57
2022/12/20 00:23:51;;;;;;;38.30;18.55;;;;;;;;;;5075124;27;20036;-54
2022/12/20 00:26:19;;;;;;;38.95;17.85;;;;;;;;;;5088486;28;20059;-53
2022/12/20 00:28:45;;;;;;;36.22;17.30;;;;;;;;;;5085580;28;20135;-56
2022/12/20 00:31:13;;;;;;;36.30;18.17;;;;;;;;;;5086117;28;20035;-52
2022/12/20 00:33:40;;;;;;;35.72;18.30;;;;;;;;;;5081804;28;20134;-50
2022/12/20 00:36:07;;;;;;;35.90;18.73;;;;;;;;;;5087826;28;20496;-55
2022/12/20 00:38:33;;;;;;;40.00;20.02;;;;;;;;;;5087022;27;20475;-54
2022/12/20 00:41:14;;;;;;;33.08;17.98;;;;;;;;;;5084306;27;20093;-53
2022/12/20 00:43:41;;;;;;;35.28;17.30;;;;;;;;;;5085467;28;20043;-56
2022/12/20 00:46:08;;;;;;;36.65;19.02;;;;;;;;;;5088087;28;20123;-53
2022/12/20 00:48:34;;;;;;;34.30;17.98;;;;;;;;;;5090880;28;20058;-55
2022/12/20 00:51:04;;;;;;;36.88;18.60;;;;;;;;;;5091323;28;20039;-54
2022/12/20 00:53:30;;;;;;;36.80;18.40;;;;;;;;;;5085486;28;20055;-54
2022/12/20 00:55:55;;;;;;;40.05;19.90;;;;;;;;;;5075392;28;20383;-57
2022/12/20 00:58:21;;;;;;;39.33;19.25;;;;;;;;;;5079738;27;20093;-57
2022/12/20 01:00:47;;;;;;;35.05;17.55;;;;;;;;;;5079696;28;20036;-55
2022/12/20 01:03:12;;;;;;;37.70;19.55;;;;;;;;;;5077948;28;20113;-56
2022/12/20 01:05:38;;;;;;;38.08;19.45;;;;;;;;;;5078452;28;20172;-54
2022/12/20 01:08:04;;;;;;;37.70;19.33;;;;;;;;;;5077645;28;20123;-58
2022/12/20 01:10:30;;;;;;;38.33;18.90;;;;;;;;;;5096395;28;20047;-55
2022/12/20 01:12:55;;;;;;;39.20;18.50;;;;;;;;;;5077184;28;20094;-56
2022/12/20 01:15:20;;;;;;;37.72;19.38;;;;;;;;;;5080885;28;20052;-56
2022/12/20 01:17:47;;;;;;;35.38;18.45;;;;;;;;;;5079198;27;20052;-53
2022/12/20 01:20:12;;;;;;;35.28;18.13;;;;;;;;;;5081191;27;20040;-56
2022/12/20 01:22:38;;;;;;;37.90;18.20;;;;;;;;;;5080606;27;20054;-57
2022/12/20 01:25:04;;;;;;;37.55;18.83;;;;;;;;;;5077972;28;20197;-56
2022/12/20 01:27:29;;;;;;;34.92;18.25;;;;;;;;;;5080602;28;20044;-54
2022/12/20 01:29:55;;;;;;;40.25;19.80;;;;;;;;;;5075077;28;20044;-54
2022/12/20 01:32:20;;;;;;;40.55;19.42;;;;;;;;;;5081569;28;20059;-54
2022/12/20 01:34:45;;;;;;;37.83;19.40;;;;;;;;;;5080933;28;20040;-55
2022/12/20 01:37:11;;;;;;;39.03;17.88;;;;;;;;;;5076184;28;20027;-53
2022/12/20 01:39:37;;;;;;;39.63;18.95;;;;;;;;;;5075506;28;20048;-54
2022/12/20 01:42:03;;;;;;;39.97;19.63;;;;;;;;;;5075211;27;20052;-55
2022/12/20 01:44:29;;;;;;;33.83;17.70;;;;;;;;;;5072370;28;20494;-54
2022/12/20 01:46:55;;;;;;;39.33;19.00;;;;;;;;;;5086192;28;20051;-55
2022/12/20 01:49:41;;;;;;;38.22;20.50;;;;;;;;;;5074194;28;20036;-53
2022/12/20 01:52:34;;;;;;;39.47;18.90;;;;;;;;;;5075980;28;20050;-51
2022/12/20 01:55:11;;;;;;;35.65;17.90;;;;;;;;;;5078685;28;20095;-56
2022/12/20 01:57:40;;;;;;;33.78;17.88;;;;;;;;;;5078379;27;20044;-54
2022/12/20 02:00:08;;;;;;;36.08;19.30;;;;;;;;;;5073931;28;20136;-54
2022/12/20 02:02:35;;;;;;;43.17;19.52;;;;;;;;;;5076934;28;20048;-71
2022/12/20 02:05:00;;;;;;;39.72;19.30;;;;;;;;;;5072422;28;20060;-71
2022/12/20 02:07:29;;;;;;;37.65;18.83;;;;;;;;;;5079007;28;20032;-71
2022/12/20 02:09:56;;;;;;;39.17;18.98;;;;;;;;;;5076197;28;20064;-71
2022/12/20 02:12:24;;;;;;;40.42;19.42;;;;;;;;;;5082203;28;20454;-70
2022/12/20 02:15:17;;;;;;;37.78;18.85;;;;;;;;;;5076116;28;20469;-71
2022/12/20 02:18:01;;;;;;;42.03;19.27;;;;;;;;;;5083421;28;20079;-71
2022/12/20 02:20:29;;;;;;;40.28;19.30;;;;;;;;;;5082340;28;20072;-71
2022/12/20 02:23:32;;;;;;;39.03;19.00;;;;;;;;;;5085401;28;20066;-70
2022/12/20 02:26:09;;;;;;;32.47;17.48;;;;;;;;;;5092333;28;20068;-71
2022/12/20 02:29:01;;;;;;;36.38;18.00;;;;;;;;;;5085005;28;20028;-70
2022/12/20 02:31:34;;;;;;;35.78;17.67;;;;;;;;;;5093077;28;20101;-71
2022/12/20 02:34:01;;;;;;;37.40;17.88;;;;;;;;;;5086116;28;20036;-72
2022/12/20 02:36:27;;;;;;;37.55;17.42;;;;;;;;;;5086957;27;20071;-71
2022/12/20 02:38:52;;;;;;;37.75;18.45;;;;;;;;;;5089097;28;20496;-71
2022/12/20 02:41:26;;;;;;;43.80;18.85;;;;;;;;;;5091443;27;20513;-71
2022/12/20 02:46:47;;;;;;;35.20;17.45;;;;;;;;;;5087196;28;20393;-74
2022/12/20 02:49:17;;;;;;;41.38;18.70;;;;;;;;;;5090664;28;20024;-73
2022/12/20 02:51:46;;;;;;;38.65;19.02;;;;;;;;;;5096274;28;20448;-71
2022/12/20 02:54:13;;;;;;;39.00;17.83;;;;;;;;;;5081913;28;20402;-72
2022/12/20 02:56:49;;;;;;;37.38;18.83;;;;;;;;;;5079443;27;20174;-71
2022/12/20 02:59:27;;;;;;;39.08;19.05;;;;;;;;;;5080740;28;20048;-71
2022/12/20 03:01:54;;;;;;;35.85;17.25;;;;;;;;;;5081904;28;20056;-72
2022/12/20 03:04:24;;;;;;;40.17;18.40;;;;;;;;;;5081455;28;20055;-73
2022/12/20 03:06:59;;;;;;;37.25;18.42;;;;;;;;;;5082337;28;20118;-72
2022/12/20 03:09:24;;;;;;;38.65;17.73;;;;;;;;;;5077709;28;20052;-71
2022/12/20 03:11:50;;;;;;;35.38;17.58;;;;;;;;;;5081492;28;20045;-71
2022/12/20 03:14:16;;;;;;;36.28;18.75;;;;;;;;;;5083139;28;20552;-71
2022/12/20 03:16:41;;;;;;;36.78;17.20;;;;;;;;;;5078208;27;20048;-71
2022/12/20 03:19:06;;;;;;;35.60;18.23;;;;;;;;;;5083751;28;20036;-71
2022/12/20 03:21:32;;;;;;;37.35;18.45;;;;;;;;;;5080807;28;20048;-71
2022/12/20 03:23:57;;;;;;;35.97;17.70;;;;;;;;;;5081574;28;20052;-71
2022/12/20 03:26:22;;;;;;;34.88;18.52;;;;;;;;;;5085771;28;20058;-71
2022/12/20 03:28:48;;;;;;;39.28;18.73;;;;;;;;;;5077961;28;20812;-72
2022/12/20 03:31:14;;;;;;;32.78;16.85;;;;;;;;;;5080833;28;20047;-72
2022/12/20 03:33:39;;;;;;;34.28;16.95;;;;;;;;;;5078233;28;20847;-72
2022/12/20 03:36:05;;;;;;;35.13;18.42;;;;;;;;;;5075945;28;20237;-72
2022/12/20 03:38:30;;;;;;;33.58;16.55;;;;;;;;;;5078320;28;20084;-72
2022/12/20 03:40:55;;;;;;;35.72;17.08;;;;;;;;;;5079930;28;20043;-72
2022/12/20 03:43:21;;;;;;;32.38;17.35;;;;;;;;;;5080361;28;20042;-71
2022/12/20 03:45:47;;;;;;;37.28;17.98;;;;;;;;;;5076445;28;20085;-71
2022/12/20 03:48:12;;;;;;;33.97;16.75;;;;;;;;;;5074508;28;20067;-72
2022/12/20 03:50:38;;;;;;;34.72;17.73;;;;;;;;;;5089838;28;20062;-71
2022/12/20 03:53:03;;;;;;;33.40;16.60;;;;;;;;;;5088825;28;20043;-72
2022/12/20 03:55:28;;;;;;;36.22;16.23;;;;;;;;;;5083702;27;20495;-71
2022/12/20 03:57:54;;;;;;;32.15;16.63;;;;;;;;;;5086385;28;20063;-71
2022/12/20 04:00:20;;;;;;;32.58;17.00;;;;;;;;;;5089318;28;20063;-71
2022/12/20 04:02:45;;;;;;;31.70;16.27;;;;;;;;;;5088602;28;20490;-72
2022/12/20 04:05:11;;;;;;;31.50;16.60;;;;;;;;;;5092087;28;20056;-71
2022/12/20 04:07:36;;;;;;;34.03;16.85;;;;;;;;;;5092423;28;20048;-71
2022/12/20 04:10:02;;;;;;;31.60;16.25;;;;;;;;;;5098285;28;20043;-71
2022/12/20 04:12:28;;;;;;;34.83;16.75;;;;;;;;;;5090457;28;20044;-71
2022/12/20 04:14:53;;;;;;;33.05;17.08;;;;;;;;;;5085066;27;20109;-71
2022/12/20 04:17:18;;;;;;;30.63;15.63;;;;;;;;;;5087657;27;20114;-70
2022/12/20 04:19:44;;;;;;;30.65;15.82;;;;;;;;;;5089816;28;20040;-70
2022/12/20 04:22:09;;;;;;;28.05;15.75;;;;;;;;;;5088632;28;20126;-70
2022/12/20 04:24:34;;;;;;;36.75;16.48;;;;;;;;;;5088166;28;20052;-70
2022/12/20 04:27:00;;;;;;;31.77;16.75;;;;;;;;;;5087673;28;20063;-72
2022/12/20 04:29:25;;;;;;;30.70;16.08;;;;;;;;;;5096154;28;20048;-71
2022/12/20 04:31:51;;;;;;;31.20;16.83;;;;;;;;;;5085654;28;20056;-71
2022/12/20 04:34:16;;;;;;;29.55;15.48;;;;;;;;;;5082286;28;20055;-71
2022/12/20 04:36:41;;;;;;;29.83;16.60;;;;;;;;;;5086388;28;20070;-70
2022/12/20 04:39:07;;;;;;;28.00;15.10;;;;;;;;;;5089131;28;20047;-70
2022/12/20 04:41:32;;;;;;;31.08;14.63;;;;;;;;;;5088133;28;20405;-70
2022/12/20 04:43:58;;;;;;;30.05;15.95;;;;;;;;;;5087196;28;20398;-72
2022/12/20 04:46:25;;;;;;;30.13;16.42;;;;;;;;;;5085711;28;20038;-70
2022/12/20 04:48:50;;;;;;;32.72;16.23;;;;;;;;;;5095113;28;20507;-71
2022/12/20 04:51:16;;;;;;;37.67;16.02;;;;;;;;;;5088543;28;20086;-71
2022/12/20 04:53:48;;;;;;;32.80;16.42;;;;;;;;;;5080047;27;20119;-71
2022/12/20 04:56:17;;;;;;;35.80;16.58;;;;;;;;;;5074945;28;20068;-74
2022/12/20 04:58:42;;;;;;;32.40;16.10;;;;;;;;;;5078476;28;20036;-71
2022/12/20 05:01:08;;;;;;;35.17;17.27;;;;;;;;;;5076514;28;20040;-73
2022/12/20 05:03:34;;;;;;;30.13;16.05;;;;;;;;;;5080651;28;20520;-71
2022/12/20 05:05:59;;;;;;;30.42;17.02;;;;;;;;;;5074975;28;20780;-72
2022/12/20 05:08:25;;;;;;;37.00;18.08;;;;;;;;;;5083868;28;20032;-71
2022/12/20 05:10:50;;;;;;;41.70;19.25;;;;;;;;;;5080888;28;20044;-72
2022/12/20 05:13:16;;;;;;;36.75;18.33;;;;;;;;;;5078023;28;20061;-71
2022/12/20 05:15:42;;;;;;;37.00;18.73;;;;;;;;;;5079833;28;20048;-70
2022/12/20 05:18:08;;;;;;;38.45;19.63;;;;;;;;;;5076760;28;20055;-70
2022/12/20 05:20:33;;;;;;;36.15;18.35;;;;;;;;;;5079156;28;20499;-71
2022/12/20 05:26:28;;;;;;;36.38;18.05;;;;;;;;;;5088087;28;20075;-71
2022/12/20 05:28:35;;;;;;;37.40;18.85;;;;;;;;;;5076218;28;20032;-70
2022/12/20 05:31:01;;;;;;;35.50;17.60;;;;;;;;;;5089930;28;20473;-71
2022/12/20 05:33:27;;;;;;;36.55;19.17;;;;;;;;;;5086535;28;20056;-71
2022/12/20 05:35:53;;;;;;;41.30;18.60;;;;;;;;;;5087173;28;20040;-71
2022/12/20 05:38:19;;;;;;;42.88;18.33;;;;;;;;;;5092061;28;20044;-71
2022/12/20 05:40:47;;;;;;;35.38;17.60;;;;;;;;;;5087912;28;20105;-71
2022/12/20 05:43:12;;;;;;;39.22;18.90;;;;;;;;;;5093275;28;20028;-70
2022/12/20 05:45:38;;;;;;;37.65;19.55;;;;;;;;;;5090226;28;20125;-71
2022/12/20 05:48:03;;;;;;;36.03;18.92;;;;;;;;;;5098705;28;20043;-70
2022/12/20 05:50:29;;;;;;;41.85;18.95;;;;;;;;;;5104025;28;20051;-71
2022/12/20 05:52:54;;;;;;;39.92;19.75;;;;;;;;;;5086297;27;20106;-71
2022/12/20 05:55:19;;;;;;;39.28;19.58;;;;;;;;;;5088168;28;20115;-71
2022/12/20 05:57:45;;;;;;;38.20;18.85;;;;;;;;;;5077956;28;20043;-62
2022/12/20 06:00:13;;;;;;;37.63;19.15;;;;;;;;;;5080594;28;20047;-62
2022/12/20 06:02:38;;;;;;;36.30;18.92;;;;;;;;;;5083957;28;20202;-61
2022/12/20 06:05:05;;;;;;;39.90;19.83;;;;;;;;;;5083788;28;20060;-61
2022/12/20 06:07:30;;;;;;;36.40;19.00;;;;;;;;;;5085148;28;20130;-61
2022/12/20 06:09:56;;;;;;;38.47;18.67;;;;;;;;;;5079245;28;20115;-62
2022/12/20 06:12:22;;;;;;;35.33;18.73;;;;;;;;;;5078186;28;20068;-62
2022/12/20 06:14:48;;;;;;;40.00;20.15;;;;;;;;;;5082175;28;20493;-63
2022/12/20 06:17:13;;;;;;;47.42;20.13;;;;;;;;;;5076286;28;20131;-64
2022/12/20 06:19:41;;;;;;;36.75;19.45;;;;;;;;;;5081953;28;20040;-62
2022/12/20 06:22:08;;;;;;;39.97;19.10;;;;;;;;;;5079963;28;20074;-62
2022/12/20 06:24:34;;;;;;;37.80;18.73;;;;;;;;;;5085125;28;20073;-64
2022/12/20 06:26:59;;;;;;;35.30;18.70;;;;;;;;;;5087506;28;20048;-66
2022/12/20 06:29:25;;;;;;;39.95;18.65;;;;;;;;;;5092990;28;20062;-62
2022/12/20 06:31:50;;;;;;;40.30;19.10;;;;;;;;;;5087190;27;20048;-62
2022/12/20 06:34:16;;;;;;;45.08;20.20;;;;;;;;;;5078134;28;20039;-62
2022/12/20 06:36:42;;;;;;;39.97;19.40;;;;;;;;;;5082522;28;20055;-62
2022/12/20 06:39:08;;;;;;;38.08;19.88;;;;;;;;;;5080635;28;20052;-62
2022/12/20 06:41:34;;;;;;;39.90;19.50;;;;;;;;;;5080728;28;20040;-61
2022/12/20 06:44:00;;;;;;;45.60;19.58;;;;;;;;;;5076805;28;20051;-63
2022/12/20 06:46:26;;;;;;;38.85;19.08;;;;;;;;;;5079994;28;20036;-65
2022/12/20 06:48:51;;;;;;;38.03;18.15;;;;;;;;;;5086511;28;20036;-62
2022/12/20 06:51:17;;;;;;;38.08;18.75;;;;;;;;;;5076903;28;20052;-63
2022/12/20 06:53:42;;;;;;;42.55;18.73;;;;;;;;;;5083653;27;20052;-62
2022/12/20 06:56:08;;;;;;;35.22;18.25;;;;;;;;;;5079429;28;20094;-62
2022/12/20 06:58:33;;;;;;;35.97;18.35;;;;;;;;;;5076959;28;20036;-63
2022/12/20 07:00:59;;;;;;;40.42;19.25;;;;;;;;;;5077226;28;20151;-63
2022/12/20 07:03:25;;;;;;;42.47;19.30;;;;;;;;;;5080044;28;20074;-63
2022/12/20 07:05:54;;;;;;;38.15;17.85;;;;;;;;;;5082789;28;20051;-64
2022/12/20 07:08:22;;;;;;;34.47;17.88;;;;;;;;;;5079206;28;20085;-62
2022/12/20 07:10:48;;;;;;;47.95;18.65;;;;;;;;;;5082607;27;20040;-62
2022/12/20 07:13:13;;;;;;;36.28;18.23;;;;;;;;;;5080259;28;20457;-63
2022/12/20 07:15:38;;;;;;;37.88;17.75;;;;;;;;;;5083001;28;20044;-63
2022/12/20 07:18:05;;;;;;;38.08;19.33;;;;;;;;;;5082253;28;20135;-63
2022/12/20 07:20:31;;;;;;;32.22;17.52;;;;;;;;;;5083412;28;20350;-63
2022/12/20 07:22:56;;;;;;;35.55;18.42;;;;;;;;;;5083558;28;20042;-63
2022/12/20 07:25:22;;;;;;;45.75;19.25;;;;;;;;;;5083653;28;20034;-62
2022/12/20 07:27:51;;;;;;;38.28;18.67;;;;;;;;;;5061967;28;20474;-62
2022/12/20 07:30:18;;;;;;;40.65;19.60;;;;;;;;;;5081192;28;22006;-63
2022/12/20 07:32:43;;;;;;;38.28;19.25;;;;;;;;;;5081429;27;20714;-62
2022/12/20 07:35:10;;;;;;;40.38;19.40;;;;;;;;;;5078160;28;20052;-62
2022/12/20 07:37:35;;;;;;;46.65;21.50;;;;;;;;;;5080158;28;20028;-62
2022/12/20 07:40:02;;;;;;;40.45;20.83;;;;;;;;;;5078877;28;20653;-62
2022/12/20 07:42:27;;;;;;;44.00;20.58;;;;;;;;;;5081554;28;20638;-62
2022/12/20 07:44:52;;;;;;;42.80;19.38;;;;;;;;;;5081027;28;20056;-62
2022/12/20 07:47:18;;;;;;;43.50;20.90;;;;;;;;;;5077152;28;20063;-63
2022/12/20 07:49:44;;;;;;;45.88;19.50;;;;;;;;;;5079426;28;20052;-63
2022/12/20 07:52:12;;;;;;;40.03;19.67;;;;;;;;;;5077929;28;20025;-63
2022/12/20 07:54:44;;;;;;;45.50;20.95;;;;;;;;;;5070551;28;20058;-65
2022/12/20 07:57:15;;;;;;;41.00;19.98;;;;;;;;;;5069883;28;20069;-62
2022/12/20 07:59:45;;;;;;;36.50;20.35;;;;;;;;;;5069383;28;20044;-64
2022/12/20 08:02:19;;;;;;;40.78;20.75;;;;;;;;;;5090559;28;20081;-67
2022/12/20 08:04:46;;;;;;;41.03;20.05;;;;;;;;;;5078856;28;20046;-63
2022/12/20 08:07:11;;;;;;;42.28;20.35;;;;;;;;;;5078490;28;20028;-63
2022/12/20 08:09:40;;;;;;;48.28;21.45;;;;;;;;;;5075195;28;20059;-63
2022/12/20 08:12:09;;;;;;;45.67;22.08;;;;;;;;;;5077133;28;20055;-62
2022/12/20 08:14:35;;;;;;;46.17;21.15;;;;;;;;;;5079587;28;20171;-65
2022/12/20 08:17:01;;;;;;;43.28;21.60;;;;;;;;;;5075744;28;20052;-63
2022/12/20 08:19:26;;;;;;;46.80;21.42;;;;;;;;;;5078571;28;20028;-62
2022/12/20 08:21:52;;;;;;;43.53;20.45;;;;;;;;;;5090025;28;20062;-62
2022/12/20 08:24:17;;;;;;;58.53;21.48;;;;;;;;;;5093679;28;20597;-62
2022/12/20 08:26:43;;;;;;;41.72;21.88;;;;;;;;;;5085938;28;20144;-62
2022/12/20 08:29:08;;;;;;;45.28;20.88;;;;;;;;;;5086516;28;20059;-63
2022/12/20 08:31:38;;;;;;;44.35;21.33;;;;;;;;;;5087680;27;20578;-64
2022/12/20 08:34:05;;;;;;;51.97;22.17;;;;;;;;;;5086678;28;20035;-63
2022/12/20 08:36:30;;;;;;;49.10;23.23;;;;;;;;;;5088494;27;20050;-63
2022/12/20 08:38:56;;;;;;;52.10;22.55;;;;;;;;;;5089437;28;20158;-64
2022/12/20 08:41:21;;;;;;;50.53;21.73;;;;;;;;;;5087595;28;20044;-62
2022/12/20 08:43:47;;;;;;;44.85;21.80;;;;;;;;;;5084604;28;20439;-62
2022/12/20 08:46:12;;;;;;;45.38;21.77;;;;;;;;;;5087808;28;20065;-62
2022/12/20 08:48:38;;;;;;;47.30;21.85;;;;;;;;;;5090588;28;20059;-62
2022/12/20 08:51:07;;;;;;;41.75;21.55;;;;;;;;;;5086118;27;20519;-62
2022/12/20 08:53:34;;;;;;;43.63;21.63;;;;;;;;;;5083737;28;20047;-62
2022/12/20 08:56:11;;;;;;;47.20;21.02;;;;;;;;;;5075562;28;20047;-62
2022/12/20 08:58:37;;;;;;;43.00;21.13;;;;;;;;;;5080598;28;20453;-63
2022/12/20 09:01:05;;;;;;;42.70;21.50;;;;;;;;;;5075886;28;20032;-63
2022/12/20 09:03:31;;;;;;;42.53;21.00;;;;;;;;;;5087056;28;20139;-62
2022/12/20 09:05:58;;;;;;;37.70;19.73;;;;;;;;;;5081215;28;20127;-63
2022/12/20 09:08:24;;;;;;;44.78;20.83;;;;;;;;;;5078982;28;20052;-64
2022/12/20 09:10:50;;;;;;;38.08;19.90;;;;;;;;;;5078441;28;20563;-64
2022/12/20 09:13:16;;;;;;;41.05;20.42;;;;;;;;;;5078183;28;20032;-63
2022/12/20 09:15:42;;;;;;;40.63;19.55;;;;;;;;;;5079663;28;20817;-63
2022/12/20 09:18:07;;;;;;;44.47;20.27;;;;;;;;;;5081609;28;20092;-63
2022/12/20 09:20:33;;;;;;;35.65;19.85;;;;;;;;;;5076470;28;20433;-62
2022/12/20 09:22:59;;;;;;;38.83;19.90;;;;;;;;;;5082786;28;20047;-62
2022/12/20 09:25:25;;;;;;;37.53;19.25;;;;;;;;;;5081661;28;20035;-62
2022/12/20 09:27:52;;;;;;;40.03;19.73;;;;;;;;;;5082058;28;20162;-63
2022/12/20 09:30:18;;;;;;;35.58;19.65;;;;;;;;;;5078919;27;20056;-63
2022/12/20 09:32:43;;;;;;;41.05;20.23;;;;;;;;;;5078106;28;20471;-64
2022/12/20 09:35:08;;;;;;;38.53;19.38;;;;;;;;;;5079024;28;20047;-63
2022/12/20 09:37:34;;;;;;;34.70;19.63;;;;;;;;;;5081336;28;20044;-62
2022/12/20 09:39:59;;;;;;;39.28;19.52;;;;;;;;;;5076739;28;20027;-63
2022/12/20 09:42:27;;;;;;;42.50;20.52;;;;;;;;;;5080528;28;20510;-63
2022/12/20 09:45:08;;;;;;;34.92;19.80;;;;;;;;;;5078207;28;20070;-61
2022/12/20 09:47:35;;;;;;;39.55;19.45;;;;;;;;;;5081359;28;20067;-60
2022/12/20 09:50:03;;;;;;;41.42;19.90;;;;;;;;;;5077783;28;20047;-66
2022/12/20 09:52:34;;;;;;;34.97;18.70;;;;;;;;;;5079664;28;20040;-62
2022/12/20 09:55:12;;;;;;;37.42;19.27;;;;;;;;;;5080216;28;20517;-62
2022/12/20 09:57:52;;;;;;;39.63;19.20;;;;;;;;;;5080031;28;20719;-61
2022/12/20 10:00:19;;;;;;;34.05;18.27;;;;;;;;;;5080626;28;20173;-60
2022/12/20 10:02:46;;;;;;;39.58;19.73;;;;;;;;;;5078544;28;20176;-61
2022/12/20 10:05:45;;;;;;;36.25;19.73;;;;;;;;;;5076852;28;20056;-62
2022/12/20 10:08:31;;;;;;;31.60;17.23;;;;;;;;;;5040343;28;20056;-62
2022/12/20 10:11:01;;;;;;;35.90;17.60;;;;;;;;;;5076506;28;20407;-62
2022/12/20 10:13:57;;;;;;;33.88;17.77;;;;;;;;;;5073835;28;20036;-62
2022/12/20 10:16:41;;;;;;;33.45;19.13;;;;;;;;;;5077471;28;20079;-61
2022/12/20 10:19:46;;;;;;;36.33;18.77;;;;;;;;;;5078144;28;20039;-61
2022/12/20 10:22:19;;;;;;;42.08;18.40;;;;;;;;;;5083059;28;20098;-62
2022/12/20 10:24:54;;;;;;;34.25;18.45;;;;;;;;;;5089004;28;20379;-61
2022/12/20 10:27:20;;;;;;;34.95;17.10;;;;;;;;;;5082859;28;20044;-66
2022/12/20 10:29:48;;;;;;;35.20;18.35;;;;;;;;;;5082927;27;20058;-63
2022/12/20 10:32:20;;;;;;;34.63;18.65;;;;;;;;;;5084787;27;20044;-61
2022/12/20 10:34:58;;;;;;;33.90;17.65;;;;;;;;;;5086642;28;20036;-63
2022/12/20 10:37:24;;;;;;;37.83;18.08;;;;;;;;;;5094619;28;20058;-63
2022/12/20 10:39:50;;;;;;;33.42;18.08;;;;;;;;;;5090693;28;20035;-62
2022/12/20 10:42:35;;;;;;;36.40;18.73;;;;;;;;;;5088607;28;20105;-61
2022/12/20 10:45:01;;;;;;;33.92;19.00;;;;;;;;;;5087689;28;20060;-62
2022/12/20 10:47:32;;;;;;;37.40;19.40;;;;;;;;;;5086715;28;20082;-65
2022/12/20 10:50:17;;;;;;;41.28;20.15;;;;;;;;;;5079610;27;20083;-64
2022/12/20 10:52:44;;;;;;;38.17;20.83;;;;;;;;;;5077160;28;20044;-62
2022/12/20 10:55:31;;;;;;;34.20;19.55;;;;;;;;;;5084850;28;20406;-63
2022/12/20 10:58:01;;;;;;;41.85;20.98;;;;;;;;;;5082605;28;20048;-62
2022/12/20 11:00:29;;;;;;;35.83;19.80;;;;;;;;;;5075272;28;20056;-62
2022/12/20 11:03:18;;;;;;;35.88;20.20;;;;;;;;;;5073427;28;20112;-62
2022/12/20 11:06:15;;;;;;;34.78;20.35;;;;;;;;;;5082040;28;20060;-62
2022/12/20 11:08:41;;;;;;;38.45;19.75;;;;;;;;;;5065937;28;20135;-62
2022/12/20 11:11:21;;;;;;;42.63;22.20;;;;;;;;;;5082183;28;20537;-63
2022/12/20 11:13:47;;;;;;;46.85;21.63;;;;;;;;;;5080951;28;20074;-62
2022/12/20 11:16:27;;;;;;;41.05;20.27;;;;;;;;;;5079288;28;20036;-63
2022/12/20 11:19:22;;;;;;;37.55;20.75;;;;;;;;;;5083505;28;20555;-63
2022/12/20 11:22:00;;;;;;;39.83;20.77;;;;;;;;;;5071162;28;20085;-62
2022/12/20 11:24:52;;;;;;;36.97;20.58;;;;;;;;;;5079019;27;20052;-63
2022/12/20 11:27:54;;;;;;;45.60;20.92;;;;;;;;;;5069429;28;20052;-62
2022/12/20 11:30:37;;;;;;;39.67;20.50;;;;;;;;;;5084340;28;20139;-62
2022/12/20 11:33:19;;;;;;;39.37;20.63;;;;;;;;;;5083944;28;20554;-61
2022/12/20 11:36:11;;;;;;;40.25;20.92;;;;;;;;;;5078585;28;20024;-63
2022/12/20 11:38:45;;;;;;;39.03;20.55;;;;;;;;;;5082088;28;20044;-63
2022/12/20 11:41:16;;;;;;;42.80;21.38;;;;;;;;;;5079764;28;20106;-62
2022/12/20 11:44:01;;;;;;;41.80;21.13;;;;;;;;;;5082505;28;20182;-62
2022/12/20 11:47:03;;;;;;;45.15;22.45;;;;;;;;;;5078083;28;20604;-62
2022/12/20 11:49:49;;;;;;;45.40;22.55;;;;;;;;;;5079374;28;20414;-63
2022/12/20 11:52:34;;;;;;;44.85;21.60;;;;;;;;;;5082830;28;20467;-63
2022/12/20 11:55:12;;;;;;;45.85;20.77;;;;;;;;;;5081414;28;20036;-63
2022/12/20 11:58:10;;;;;;;52.80;21.17;;;;;;;;;;5082361;28;20059;-62
2022/12/20 12:00:38;;;;;;;40.30;20.80;;;;;;;;;;5076233;28;20051;-63
2022/12/20 12:03:20;;;;;;;42.67;21.05;;;;;;;;;;5076547;28;20510;-62
2022/12/20 12:05:59;;;;;;;37.38;20.58;;;;;;;;;;5083143;28;20032;-62
2022/12/20 12:08:38;;;;;;;41.28;21.20;;;;;;;;;;5082430;28;20123;-64
2022/12/20 12:11:10;;;;;;;42.70;21.30;;;;;;;;;;5084257;28;20101;-63
2022/12/20 12:13:38;;;;;;;42.13;21.33;;;;;;;;;;5081909;28;20096;-62
2022/12/20 12:16:15;;;;;;;37.65;20.17;;;;;;;;;;5077065;28;20040;-62
2022/12/20 12:18:41;;;;;;;36.65;19.73;;;;;;;;;;5078965;28;20059;-61
2022/12/20 12:21:40;;;;;;;36.45;20.98;;;;;;;;;;5084038;27;20391;-61
2022/12/20 12:24:41;;;;;;;46.28;20.58;;;;;;;;;;5083565;28;20123;-61
2022/12/20 12:27:14;;;;;;;47.63;22.75;;;;;;;;;;5083401;28;20089;-61
2022/12/20 12:29:40;;;;;;;38.45;20.38;;;;;;;;;;5088233;28;20043;-61
2022/12/20 12:32:15;;;;;;;35.25;20.63;;;;;;;;;;5083839;28;20657;-62
2022/12/20 12:34:53;;;;;;;43.85;22.20;;;;;;;;;;5087776;28;20059;-62
2022/12/20 12:37:49;;;;;;;37.58;20.73;;;;;;;;;;5089537;28;20510;-61
2022/12/20 12:40:26;;;;;;;41.50;22.02;;;;;;;;;;5086522;28;20495;-64
2022/12/20 12:43:07;;;;;;;42.63;23.13;;;;;;;;;;5085593;28;20044;-62
2022/12/20 12:45:47;;;;;;;42.92;21.60;;;;;;;;;;5087051;28;20040;-62
2022/12/20 12:48:25;;;;;;;42.08;22.02;;;;;;;;;;5084627;28;20024;-62
2022/12/20 12:50:54;;;;;;;44.25;21.73;;;;;;;;;;5085340;28;20036;-62
2022/12/20 12:53:50;;;;;;;41.80;21.90;;;;;;;;;;5077192;28;20043;-62
2022/12/20 12:56:25;;;;;;;43.95;21.88;;;;;;;;;;5076988;28;20070;-63
2022/12/20 12:59:05;;;;;;;45.00;20.58;;;;;;;;;;5083295;27;20047;-61
2022/12/20 13:01:47;;;;;;;38.38;19.77;;;;;;;;;;5084740;28;20062;-64
2022/12/20 13:04:18;;;;;;;32.90;19.60;;;;;;;;;;5086090;28;20531;-62
2022/12/20 13:06:46;;;;;;;37.53;19.80;;;;;;;;;;5087041;28;20067;-61
2022/12/20 13:09:26;;;;;;;43.92;20.08;;;;;;;;;;5088171;28;20040;-61
2022/12/20 13:11:54;;;;;;;41.45;19.92;;;;;;;;;;5087042;28;20032;-62
2022/12/20 13:14:19;;;;;;;38.58;21.13;;;;;;;;;;5076253;28;20055;-61
2022/12/20 13:16:46;;;;;;;43.08;20.73;;;;;;;;;;5075226;28;20058;-62
2022/12/20 13:19:34;;;;;;;45.45;21.42;;;;;;;;;;5074736;28;20052;-62
2022/12/20 13:22:05;;;;;;;38.83;21.00;;;;;;;;;;5076962;28;20090;-62
2022/12/20 13:24:49;;;;;;;42.00;20.98;;;;;;;;;;5079159;28;20047;-62
2022/12/20 13:27:16;;;;;;;35.80;20.25;;;;;;;;;;5077143;28;20424;-62
2022/12/20 13:30:06;;;;;;;40.22;20.35;;;;;;;;;;5079760;28;20043;-64
2022/12/20 13:32:47;;;;;;;34.45;20.88;;;;;;;;;;5078582;28;20502;-62
2022/12/20 13:35:24;;;;;;;34.85;19.48;;;;;;;;;;5076980;28;20093;-62
2022/12/20 13:38:11;;;;;;;31.70;17.70;;;;;;;;;;5071253;28;20129;-62
2022/12/20 13:40:46;;;;;;;36.35;19.48;;;;;;;;;;5079138;27;20074;-62
2022/12/20 13:43:24;;;;;;;37.85;19.48;;;;;;;;;;5078021;28;20048;-62
2022/12/20 13:45:51;;;;;;;37.97;20.30;;;;;;;;;;5076937;28;20075;-62
2022/12/20 13:48:39;;;;;;;35.65;19.77;;;;;;;;;;5070938;28;20028;-62
2022/12/20 13:51:09;;;;;;;37.50;19.33;;;;;;;;;;5065411;28;20134;-62
2022/12/20 13:53:34;;;;;;;33.10;18.92;;;;;;;;;;5075175;28;20328;-62
2022/12/20 13:56:39;;;;;;;34.78;19.38;;;;;;;;;;5077694;28;20081;-63
2022/12/20 13:59:13;;;;;;;42.42;22.30;;;;;;;;;;5072519;28;20104;-63
2022/12/20 14:01:48;;;;;;;50.38;25.92;;;;;;;;;;5074224;27;20071;-62
2022/12/20 14:04:14;;;;;;;48.30;27.67;;;;;;;;;;5076094;28;20042;-61
2022/12/20 14:06:39;;;;;;;66.57;31.35;;;;;;;;;;5076985;28;20051;-61
2022/12/20 14:09:30;;;;;;;47.63;24.27;;;;;;;;;;5076469;28;20081;-61
2022/12/20 14:12:02;;;;;;;38.83;20.25;;;;;;;;;;5078696;28;21107;-61
2022/12/20 14:14:27;;;;;;;34.95;19.83;;;;;;;;;;5075797;28;20053;-64
2022/12/20 14:16:52;;;;;;;33.38;18.45;;;;;;;;;;5080948;28;20043;-62
2022/12/20 14:19:18;;;;;;;26.33;14.77;;;;;;;;;;5080726;28;20064;-63
2022/12/20 14:21:45;;;;;;;26.67;14.82;;;;;;;;;;5082027;28;20048;-62
2022/12/20 14:24:19;;;;;;;25.85;15.10;;;;;;;;;;5084738;28;20028;-63
2022/12/20 14:26:47;;;;;;;25.15;14.57;;;;;;;;;;5083032;28;20123;-63
2022/12/20 14:29:26;;;;;;;27.88;14.93;;;;;;;;;;5082273;28;20048;-63
2022/12/20 14:31:52;;;;;;;26.30;15.57;;;;;;;;;;5090735;28;20044;-63
2022/12/20 14:34:25;;;;;;;26.35;15.90;;;;;;;;;;5086973;28;20048;-64
2022/12/20 14:36:51;;;;;;;30.23;16.63;;;;;;;;;;5092677;28;20301;-63
2022/12/20 14:39:27;;;;;;;34.10;15.93;;;;;;;;;;5085231;28;20028;-62
2022/12/20 14:42:13;;;;;;;29.75;16.83;;;;;;;;;;5089848;28;20455;-63